Accueil
METAR-TAF:

METAR-TAF

Aéroports :

Saint-Sébastien, Espagne

Aéroport de Saint-Sébastien

latitude: 43-21N, longitude: 001-48W, altitude: 5 m

Observation

Le bulletin a été fait il y a 36 minutes, à 00:00 UTC
Vent 2 kt de direction variable
Température 4°C
Humidité 70%
Pression 1009 hPa
Visibilité 10 km ou plus

METAR: LESO 240000Z AUTO VRB02KT 9999 OVC037/// 04/M01 Q1009

Heure: 01:36 (00:36 UTC)

Prévision

Le bulletin a été fait il y a 1 heure et 36 minutes, à 23:00 UTC
Prévision valable du 24 à 00 UTC au 24 à 24 UTC
Vent 5 kt de est/sud-est
Visibilité 10 km ou plus
Nuages épars à une hauteur de 3500 ft
Probabilité 30%
du 24 à 12 UTC au 24 à 18 UTC
Vent 10 kt de nord/nord-est

TAF: LESO 232300Z 2400/2424 12005KT 9999 SCT035 TX08/2412Z TNM00/2407Z PROB30 2412/2418 02010KT

Observations et prévisions météorologiques de plus de 4000 aéroports (messages METAR et TAF).

Les stations disponibles sont représentées par des disques jaunes et rouges sur la carte.

Passer la souris dessus pour voir le nom de la station.

Cliquer dessus pour voir les observations et prévisions météorologiques.

Pour changer de carte: cliquez sur les boutons verts avec une croix noire pour zoomer, sur le bouton vert avec un tiret pour effectuer un zoom arrière, ou sur les flèches vertes pour les cartes adjacentes.


METAR-TAF: